createdAt,value
2023-07-03T00:00:16.084Z,17.30
2023-07-03T00:02:43.823Z,17.30
2023-07-03T00:05:11.849Z,17.20
2023-07-03T00:07:40.095Z,17.20
2023-07-03T00:10:08.182Z,17.10
2023-07-03T00:12:35.832Z,17.10
2023-07-03T00:15:02.990Z,17.10
2023-07-03T00:17:29.850Z,17.10
2023-07-03T00:19:56.695Z,17.10
2023-07-03T00:22:23.632Z,17.10
2023-07-03T00:24:50.468Z,17.00
2023-07-03T00:27:18.107Z,17.00
2023-07-03T00:29:44.874Z,16.90
2023-07-03T00:32:11.816Z,16.90
2023-07-03T00:34:38.491Z,16.90
2023-07-03T00:37:05.699Z,16.90
2023-07-03T00:39:32.385Z,16.90
2023-07-03T00:41:59.570Z,16.80
2023-07-03T00:44:26.336Z,16.80
2023-07-03T00:46:53.134Z,16.80
2023-07-03T00:49:21.505Z,16.80
2023-07-03T00:51:52.837Z,16.70
2023-07-03T00:54:19.617Z,16.70
2023-07-03T00:56:46.730Z,16.70
2023-07-03T00:59:14.644Z,16.70
2023-07-03T01:01:56.671Z,16.60
2023-07-03T01:04:26.327Z,16.60
2023-07-03T01:07:01.453Z,16.60
2023-07-03T01:09:34.463Z,16.60
2023-07-03T01:12:01.860Z,16.50
2023-07-03T01:14:29.717Z,16.50
2023-07-03T01:16:58.593Z,16.50
2023-07-03T01:19:30.462Z,16.40
2023-07-03T01:22:03.884Z,16.40
2023-07-03T01:24:40.793Z,16.40
2023-07-03T01:27:09.340Z,16.40
2023-07-03T01:29:36.890Z,16.30
2023-07-03T01:32:08.375Z,16.30
2023-07-03T01:34:35.572Z,16.20
2023-07-03T01:37:03.380Z,16.20
2023-07-03T01:39:31.092Z,16.10
2023-07-03T01:41:59.444Z,16.10
2023-07-03T01:44:26.162Z,16.10
2023-07-03T01:46:52.853Z,16.10
2023-07-03T01:49:19.589Z,16.10
2023-07-03T01:51:58.723Z,16.10
2023-07-03T01:54:31.448Z,16.00
2023-07-03T01:57:02.175Z,15.90
2023-07-03T01:59:30.836Z,15.90
2023-07-03T02:02:13.844Z,15.90
2023-07-03T02:05:01.530Z,15.90
2023-07-03T02:07:30.695Z,15.90
2023-07-03T02:09:58.098Z,15.80
2023-07-03T02:12:24.879Z,15.80
2023-07-03T02:14:51.672Z,15.80
2023-07-03T02:17:18.451Z,15.70
2023-07-03T02:19:45.225Z,15.70
2023-07-03T02:22:11.955Z,15.70
2023-07-03T02:24:38.698Z,15.70
2023-07-03T02:27:05.778Z,15.60
2023-07-03T02:29:32.529Z,15.60
2023-07-03T02:31:59.247Z,15.60
2023-07-03T02:34:25.972Z,15.60
2023-07-03T02:36:54.100Z,15.60
2023-07-03T02:39:23.924Z,15.60
2023-07-03T02:41:51.090Z,15.60
2023-07-03T02:44:17.862Z,15.50
2023-07-03T02:46:44.823Z,15.50
2023-07-03T02:49:11.531Z,15.40
2023-07-03T02:51:38.300Z,15.40
2023-07-03T02:54:06.078Z,15.30
2023-07-03T02:56:33.072Z,15.40
2023-07-03T02:58:59.770Z,15.30
2023-07-03T03:01:26.869Z,15.30
2023-07-03T03:03:53.671Z,15.30
2023-07-03T03:06:20.415Z,15.40
2023-07-03T03:08:47.124Z,15.40
2023-07-03T03:11:14.946Z,15.40
2023-07-03T03:13:42.685Z,15.40
2023-07-03T03:16:09.493Z,15.40
2023-07-03T03:18:36.279Z,15.40
2023-07-03T03:21:03.001Z,15.40
2023-07-03T03:23:29.736Z,15.40
2023-07-03T03:25:56.428Z,15.50
2023-07-03T03:28:23.157Z,15.50
2023-07-03T03:30:49.880Z,15.40
2023-07-03T03:33:16.627Z,15.50
2023-07-03T03:35:43.323Z,15.50
2023-07-03T03:38:10.033Z,15.50
2023-07-03T03:40:36.809Z,15.40
2023-07-03T03:43:03.547Z,15.40
2023-07-03T03:45:30.403Z,15.50
2023-07-03T03:47:57.161Z,15.40
2023-07-03T03:50:24.040Z,15.40
2023-07-03T03:52:50.706Z,15.50
2023-07-03T03:55:17.463Z,15.40
2023-07-03T03:57:44.157Z,15.40
2023-07-03T04:00:17.008Z,15.40
2023-07-03T04:02:44.391Z,15.40
2023-07-03T04:05:12.526Z,15.40
2023-07-03T04:07:40.261Z,15.40
2023-07-03T04:10:08.152Z,15.50
2023-07-03T04:12:34.930Z,15.50
2023-07-03T04:15:04.096Z,15.40
2023-07-03T04:17:30.866Z,15.50
2023-07-03T04:19:57.631Z,15.50
2023-07-03T04:22:24.422Z,15.50
2023-07-03T04:24:51.154Z,15.50
2023-07-03T04:27:18.835Z,15.60
2023-07-03T04:29:45.634Z,15.60
2023-07-03T04:32:12.582Z,15.70
2023-07-03T04:34:39.400Z,15.60
2023-07-03T04:37:06.966Z,15.60
2023-07-03T04:39:33.757Z,15.60
2023-07-03T04:42:01.383Z,15.70
2023-07-03T04:44:28.888Z,15.70
2023-07-03T04:46:59.253Z,15.70
2023-07-03T04:49:30.381Z,15.80
2023-07-03T04:51:57.261Z,15.70
2023-07-03T04:54:25.141Z,15.80
2023-07-03T04:56:51.875Z,15.80
2023-07-03T04:59:18.563Z,15.80
2023-07-03T05:01:45.280Z,15.90
2023-07-03T05:04:13.111Z,15.90
2023-07-03T05:06:40.762Z,15.90
2023-07-03T05:09:09.212Z,15.90
2023-07-03T05:11:36.126Z,16.00
2023-07-03T05:14:03.009Z,16.00
2023-07-03T05:16:29.944Z,16.00
2023-07-03T05:18:57.169Z,16.10
2023-07-03T05:21:23.916Z,16.10
2023-07-03T05:23:50.750Z,16.10
2023-07-03T05:26:17.459Z,16.20
2023-07-03T05:28:44.233Z,16.20
2023-07-03T05:31:11.038Z,16.30
2023-07-03T05:33:38.036Z,16.30
2023-07-03T05:36:05.302Z,16.30
2023-07-03T05:38:32.912Z,16.30
2023-07-03T05:40:59.744Z,16.40
2023-07-03T05:43:27.944Z,16.30
2023-07-03T05:45:54.865Z,16.40
2023-07-03T05:48:21.841Z,16.40
2023-07-03T05:50:48.627Z,16.50
2023-07-03T05:53:15.646Z,16.50
2023-07-03T05:55:42.436Z,16.60
2023-07-03T05:58:09.185Z,16.60
2023-07-03T06:00:38.000Z,16.60
2023-07-03T06:03:05.895Z,16.70
2023-07-03T06:05:32.857Z,16.80
2023-07-03T06:07:59.604Z,16.80
2023-07-03T06:10:26.321Z,16.90
2023-07-03T06:12:53.021Z,16.90
2023-07-03T06:15:19.890Z,17.00
2023-07-03T06:17:46.798Z,17.00
2023-07-03T06:20:13.908Z,17.00
2023-07-03T06:22:42.384Z,17.10
2023-07-03T06:25:09.679Z,17.10
2023-07-03T06:27:36.712Z,17.10
2023-07-03T06:30:04.524Z,17.10
2023-07-03T06:32:31.263Z,17.20
2023-07-03T06:34:58.338Z,17.30
2023-07-03T06:37:25.108Z,17.30
2023-07-03T06:39:52.100Z,17.40
2023-07-03T06:42:18.908Z,17.30
2023-07-03T06:44:45.712Z,17.40
2023-07-03T06:47:12.452Z,17.40
2023-07-03T06:49:39.256Z,17.50
2023-07-03T06:52:06.524Z,17.50
2023-07-03T06:54:33.576Z,17.60
2023-07-03T06:57:01.056Z,17.70
2023-07-03T06:59:27.901Z,17.70
2023-07-03T07:01:54.734Z,17.70
2023-07-03T07:04:21.659Z,17.80
2023-07-03T07:06:49.574Z,17.90
2023-07-03T07:09:17.192Z,18.00
2023-07-03T07:11:44.201Z,18.00
2023-07-03T07:14:10.921Z,18.00
2023-07-03T07:16:38.215Z,18.20
2023-07-03T07:19:06.857Z,18.30
2023-07-03T07:21:35.813Z,18.50
2023-07-03T07:24:12.825Z,18.60
2023-07-03T07:26:39.516Z,18.70
2023-07-03T07:29:06.191Z,18.60
2023-07-03T07:31:33.214Z,18.70
2023-07-03T07:34:00.768Z,18.80
2023-07-03T07:36:27.905Z,18.80
2023-07-03T07:38:56.681Z,18.90
2023-07-03T07:41:26.446Z,18.90
2023-07-03T07:43:54.119Z,18.80
2023-07-03T07:46:21.370Z,19.00
2023-07-03T07:48:48.968Z,19.10
2023-07-03T07:51:15.730Z,19.10
2023-07-03T07:53:42.435Z,19.00
2023-07-03T07:56:10.722Z,19.00
2023-07-03T07:58:37.903Z,19.10
2023-07-03T08:01:05.105Z,19.00
2023-07-03T08:03:32.361Z,19.10
2023-07-03T08:06:05.648Z,19.10
2023-07-03T08:08:34.016Z,19.10
2023-07-03T08:11:03.639Z,19.00
2023-07-03T08:13:31.797Z,18.90
2023-07-03T08:15:58.762Z,18.80
2023-07-03T08:18:26.088Z,18.90
2023-07-03T08:20:53.692Z,18.80
2023-07-03T08:23:21.087Z,18.90
2023-07-03T08:25:52.846Z,19.10
2023-07-03T08:28:20.755Z,19.20
2023-07-03T08:30:47.768Z,19.30
2023-07-03T08:33:15.442Z,19.30
2023-07-03T08:38:12.725Z,19.90
2023-07-03T08:40:39.853Z,20.30
2023-07-03T08:43:11.609Z,20.50
2023-07-03T08:45:42.499Z,20.70
2023-07-03T08:48:18.033Z,21.00
2023-07-03T08:50:48.525Z,21.00
2023-07-03T08:53:20.001Z,21.20
2023-07-03T08:56:30.079Z,21.20
2023-07-03T08:58:57.385Z,21.10
2023-07-03T09:01:37.780Z,21.10
2023-07-03T09:04:27.241Z,21.20
2023-07-03T09:07:03.589Z,21.20
2023-07-03T09:09:39.569Z,21.10
2023-07-03T09:12:26.876Z,21.10
2023-07-03T09:15:24.960Z,21.10
2023-07-03T09:17:54.749Z,21.50
2023-07-03T09:20:25.019Z,21.40
2023-07-03T09:23:22.230Z,21.60
2023-07-03T09:26:20.970Z,21.50
2023-07-03T09:28:48.878Z,21.60
2023-07-03T09:31:15.879Z,21.60
2023-07-03T09:33:43.389Z,21.50
2023-07-03T09:36:31.244Z,21.50
2023-07-03T09:38:58.186Z,21.40
2023-07-03T09:41:27.378Z,21.40
2023-07-03T09:43:54.331Z,21.30
2023-07-03T09:46:21.786Z,21.50
2023-07-03T09:48:48.753Z,21.50
2023-07-03T09:51:21.314Z,21.20
2023-07-03T09:56:23.464Z,21.40
2023-07-03T09:58:54.069Z,21.60
2023-07-03T10:06:39.765Z,21.40
2023-07-03T10:12:00.467Z,21.20
2023-07-03T10:14:56.657Z,21.30
2023-07-03T10:17:32.724Z,21.20
2023-07-03T10:20:10.923Z,21.20
2023-07-03T10:22:42.682Z,21.30
2023-07-03T10:25:18.480Z,21.40
2023-07-03T10:27:48.857Z,21.70
2023-07-03T10:30:19.381Z,21.90
2023-07-03T10:32:49.974Z,22.10
2023-07-03T10:35:30.003Z,22.30
2023-07-03T10:38:15.697Z,22.30
2023-07-03T10:40:57.588Z,21.90
2023-07-03T10:43:28.037Z,21.50
2023-07-03T10:45:55.469Z,21.20
2023-07-03T10:48:27.469Z,21.00
2023-07-03T10:51:26.595Z,21.00
2023-07-03T10:54:03.965Z,21.10
2023-07-03T10:56:38.900Z,21.40
2023-07-03T10:59:14.602Z,21.50
2023-07-03T11:01:57.566Z,21.80
2023-07-03T11:04:37.505Z,21.80
2023-07-03T11:07:15.051Z,21.90
2023-07-03T11:09:55.152Z,21.70
2023-07-03T11:12:51.281Z,21.50
2023-07-03T11:15:41.002Z,21.60
2023-07-03T11:24:06.411Z,21.90
2023-07-03T11:29:11.328Z,22.20
2023-07-03T11:31:43.809Z,22.30
2023-07-03T11:36:50.503Z,22.10
2023-07-03T11:44:43.665Z,21.90
2023-07-03T11:47:28.710Z,22.00
2023-07-03T11:50:00.370Z,22.00
2023-07-03T11:52:33.607Z,22.10
2023-07-03T11:55:15.099Z,22.00
2023-07-03T11:57:45.267Z,22.20
2023-07-03T12:00:23.747Z,22.10
2023-07-03T12:02:54.381Z,22.30
2023-07-03T12:05:45.865Z,22.50
2023-07-03T12:08:18.854Z,22.70
2023-07-03T12:13:29.631Z,23.40
2023-07-03T12:16:01.243Z,23.70
2023-07-03T12:18:27.927Z,23.60
2023-07-03T12:20:59.651Z,23.60
2023-07-03T12:23:49.050Z,23.30
2023-07-03T12:26:17.510Z,23.20
2023-07-03T12:28:45.210Z,23.10
2023-07-03T12:31:23.214Z,23.00
2023-07-03T12:34:01.061Z,22.90
2023-07-03T12:36:38.433Z,23.10
2023-07-03T12:39:15.638Z,23.00
2023-07-03T12:41:42.488Z,23.10
2023-07-03T12:44:11.804Z,23.20
2023-07-03T12:46:41.182Z,23.40
2023-07-03T12:49:09.859Z,23.40
2023-07-03T12:51:50.032Z,23.60
2023-07-03T12:54:16.798Z,24.10
2023-07-03T12:56:45.227Z,24.60
2023-07-03T12:59:19.676Z,24.30
2023-07-03T13:01:51.374Z,24.20
2023-07-03T13:04:34.976Z,24.20
2023-07-03T13:07:05.122Z,24.40
2023-07-03T13:09:33.253Z,24.70
2023-07-03T13:12:00.033Z,24.60
2023-07-03T13:14:29.198Z,24.40
2023-07-03T13:16:59.478Z,23.90
2023-07-03T13:19:35.997Z,23.50
2023-07-03T13:22:08.266Z,24.30
2023-07-03T13:24:43.927Z,24.80
2023-07-03T13:27:23.960Z,24.80
2023-07-03T13:29:52.476Z,24.50
2023-07-03T13:32:22.448Z,24.20
2023-07-03T13:34:59.801Z,24.60
2023-07-03T13:37:32.667Z,25.30
2023-07-03T13:40:01.898Z,25.50
2023-07-03T13:42:30.573Z,25.30
2023-07-03T13:44:57.326Z,24.70
2023-07-03T13:47:27.433Z,24.20
2023-07-03T13:49:55.471Z,23.90
2023-07-03T13:52:22.199Z,23.80
2023-07-03T13:54:49.048Z,24.60
2023-07-03T13:57:15.798Z,25.40
2023-07-03T13:59:42.499Z,26.20
2023-07-03T14:02:09.276Z,26.70
2023-07-03T14:04:36.090Z,26.90
2023-07-03T14:07:02.821Z,26.50
2023-07-03T14:09:29.659Z,26.00
2023-07-03T14:11:56.397Z,25.80
2023-07-03T14:14:24.231Z,25.60
2023-07-03T14:16:52.807Z,25.80
2023-07-03T14:19:19.548Z,26.40
2023-07-03T14:21:46.243Z,27.10
2023-07-03T14:24:12.979Z,27.40
2023-07-03T14:26:39.672Z,27.20
2023-07-03T14:29:07.510Z,26.40
2023-07-03T14:31:34.346Z,25.90
2023-07-03T14:34:01.152Z,25.90
2023-07-03T14:36:28.018Z,25.60
2023-07-03T14:38:56.139Z,25.20
2023-07-03T14:41:22.910Z,24.60
2023-07-03T14:43:50.500Z,24.50
2023-07-03T14:46:17.749Z,24.40
2023-07-03T14:48:44.509Z,24.50
2023-07-03T14:51:11.335Z,24.50
2023-07-03T14:53:38.661Z,24.70
2023-07-03T14:56:07.531Z,24.60
2023-07-03T14:58:35.532Z,24.40
2023-07-03T15:01:03.672Z,24.50
2023-07-03T15:03:32.063Z,24.80
2023-07-03T15:05:59.049Z,24.90
2023-07-03T15:08:29.859Z,24.80
2023-07-03T15:10:56.657Z,24.70
2023-07-03T15:13:23.490Z,24.80
2023-07-03T15:15:51.381Z,24.70
2023-07-03T15:18:18.375Z,24.60
2023-07-03T15:20:46.898Z,24.60
2023-07-03T15:23:15.594Z,24.50
2023-07-03T15:25:42.848Z,24.40
2023-07-03T15:28:09.602Z,24.40
2023-07-03T15:30:40.127Z,24.60
2023-07-03T15:33:07.276Z,24.60
2023-07-03T15:35:34.087Z,24.60
2023-07-03T15:38:00.782Z,24.60
2023-07-03T15:40:27.687Z,24.40
2023-07-03T15:42:54.610Z,24.30
2023-07-03T15:45:23.406Z,24.60
2023-07-03T15:47:50.615Z,24.70
2023-07-03T15:50:17.449Z,24.60
2023-07-03T15:52:44.283Z,24.60
2023-07-03T15:55:11.116Z,24.40
2023-07-03T15:57:37.858Z,24.50
2023-07-03T16:00:04.905Z,24.40
2023-07-03T16:02:31.680Z,24.50
2023-07-03T16:04:58.408Z,24.60
2023-07-03T16:07:25.424Z,24.50
2023-07-03T16:09:52.160Z,24.50
2023-07-03T16:12:18.915Z,24.40
2023-07-03T16:14:47.875Z,24.30
2023-07-03T16:17:15.119Z,24.20
2023-07-03T16:19:42.052Z,24.20
2023-07-03T16:22:08.899Z,24.20
2023-07-03T16:24:35.628Z,24.20
2023-07-03T16:27:04.358Z,24.40
2023-07-03T16:29:31.049Z,24.40
2023-07-03T16:31:57.949Z,24.40
2023-07-03T16:34:24.807Z,24.30
2023-07-03T16:36:51.531Z,24.40
2023-07-03T16:39:18.267Z,24.30
2023-07-03T16:41:44.956Z,24.20
2023-07-03T16:44:11.727Z,24.20
2023-07-03T16:46:40.364Z,24.10
2023-07-03T16:49:07.765Z,24.10
2023-07-03T16:51:34.555Z,24.00
2023-07-03T16:54:02.265Z,24.00
2023-07-03T16:56:29.090Z,23.90
2023-07-03T16:58:58.922Z,24.00
2023-07-03T17:01:27.878Z,24.00
2023-07-03T17:03:56.636Z,24.00
2023-07-03T17:06:32.001Z,24.00
2023-07-03T17:09:00.065Z,23.90
2023-07-03T17:11:26.929Z,23.90
2023-07-03T17:13:54.659Z,23.90
2023-07-03T17:16:21.964Z,23.90
2023-07-03T17:18:48.722Z,23.80
2023-07-03T17:21:15.505Z,23.80
2023-07-03T17:23:42.754Z,23.80
2023-07-03T17:26:11.647Z,23.80
2023-07-03T17:28:38.482Z,23.60
2023-07-03T17:31:06.018Z,23.60
2023-07-03T17:33:33.272Z,23.60
2023-07-03T17:36:02.204Z,23.50
2023-07-03T17:38:29.372Z,23.40
2023-07-03T17:40:56.094Z,23.30
2023-07-03T17:43:23.770Z,23.30
2023-07-03T17:45:54.977Z,23.20
2023-07-03T17:48:22.377Z,23.10
2023-07-03T17:50:50.879Z,23.20
2023-07-03T17:53:17.952Z,23.20
2023-07-03T17:55:45.593Z,23.10
2023-07-03T17:58:12.301Z,23.20
2023-07-03T18:00:39.043Z,23.10
2023-07-03T18:03:06.311Z,23.10
2023-07-03T18:05:37.040Z,23.10
2023-07-03T18:08:07.869Z,23.00
2023-07-03T18:10:35.381Z,23.00
2023-07-03T18:13:02.193Z,23.00
2023-07-03T18:15:54.592Z,23.00
2023-07-03T18:18:16.260Z,23.10
2023-07-03T18:20:45.620Z,22.90
2023-07-03T18:23:12.801Z,22.90
2023-07-03T18:25:40.067Z,23.00
2023-07-03T18:28:06.945Z,23.00
2023-07-03T18:30:33.640Z,23.00
2023-07-03T18:33:00.446Z,22.90
2023-07-03T18:35:27.241Z,22.80
2023-07-03T18:37:53.963Z,22.70
2023-07-03T18:40:20.924Z,22.60
2023-07-03T18:42:47.614Z,22.50
2023-07-03T18:45:14.659Z,22.40
2023-07-03T18:47:41.561Z,22.40
2023-07-03T18:50:09.753Z,22.30
2023-07-03T18:52:36.506Z,22.30
2023-07-03T18:55:04.058Z,22.20
2023-07-03T18:57:31.083Z,22.20
2023-07-03T18:59:59.938Z,22.00
2023-07-03T19:02:26.825Z,22.00
2023-07-03T19:04:53.578Z,21.80
2023-07-03T19:07:20.424Z,21.80
2023-07-03T19:09:47.606Z,21.80
2023-07-03T19:12:18.158Z,21.80
2023-07-03T19:14:44.897Z,21.70
2023-07-03T19:17:11.703Z,21.70
2023-07-03T19:19:39.218Z,21.60
2023-07-03T19:22:06.752Z,21.50
2023-07-03T19:24:33.438Z,21.50
2023-07-03T19:27:00.505Z,21.40
2023-07-03T19:29:27.360Z,21.40
2023-07-03T19:31:54.068Z,21.30
2023-07-03T19:34:20.778Z,21.30
2023-07-03T19:36:47.486Z,21.20
2023-07-03T19:39:14.265Z,21.10
2023-07-03T19:41:41.319Z,21.10
2023-07-03T19:44:08.616Z,21.00
2023-07-03T19:46:35.701Z,21.00
2023-07-03T19:49:03.555Z,21.00
2023-07-03T19:51:31.164Z,20.90
2023-07-03T19:53:59.862Z,20.90
2023-07-03T19:56:26.855Z,20.90
2023-07-03T19:58:55.472Z,20.80
2023-07-03T20:01:22.515Z,20.70
2023-07-03T20:03:50.027Z,20.70
2023-07-03T20:06:23.576Z,20.70
2023-07-03T20:08:52.844Z,20.60
2023-07-03T20:11:20.719Z,20.60
2023-07-03T20:13:48.596Z,20.50
2023-07-03T20:16:15.569Z,20.50
2023-07-03T20:18:44.862Z,20.50
2023-07-03T20:21:11.856Z,20.40
2023-07-03T20:23:38.926Z,20.40
2023-07-03T20:26:05.861Z,20.30
2023-07-03T20:28:33.316Z,20.30
2023-07-03T20:31:00.450Z,20.30
2023-07-03T20:33:27.591Z,20.20
2023-07-03T20:36:02.921Z,20.20
2023-07-03T20:38:31.057Z,20.20
2023-07-03T20:41:01.263Z,20.10
2023-07-03T20:43:29.114Z,20.00
2023-07-03T20:46:05.229Z,20.00
2023-07-03T20:48:33.139Z,20.00
2023-07-03T20:51:03.345Z,19.90
2023-07-03T20:53:40.841Z,19.90
2023-07-03T20:56:19.488Z,19.90
2023-07-03T20:58:48.096Z,19.80
2023-07-03T21:01:26.602Z,19.80
2023-07-03T21:03:54.758Z,19.70
2023-07-03T21:06:24.815Z,19.70
2023-07-03T21:08:52.596Z,19.60
2023-07-03T21:11:21.375Z,19.60
2023-07-03T21:13:50.515Z,19.60
2023-07-03T21:16:19.332Z,19.50
2023-07-03T21:18:46.633Z,19.50
2023-07-03T21:21:16.675Z,19.50
2023-07-03T21:23:44.545Z,19.50
2023-07-03T21:26:14.076Z,19.40
2023-07-03T21:28:40.845Z,19.30
2023-07-03T21:31:10.968Z,19.30
2023-07-03T21:33:37.722Z,19.30
2023-07-03T21:36:07.390Z,19.30
2023-07-03T21:38:34.493Z,19.20
2023-07-03T21:41:01.746Z,19.20
2023-07-03T21:43:28.848Z,19.20
2023-07-03T21:46:03.382Z,19.10
2023-07-03T21:48:30.391Z,19.10
2023-07-03T21:50:57.211Z,19.00
2023-07-03T21:53:23.957Z,19.00
2023-07-03T21:55:52.207Z,18.90
2023-07-03T21:58:19.736Z,18.90
2023-07-03T22:00:49.709Z,18.90
2023-07-03T22:03:16.900Z,18.90
2023-07-03T22:05:43.663Z,18.90
2023-07-03T22:08:10.503Z,18.80
2023-07-03T22:10:37.256Z,18.80
2023-07-03T22:13:05.633Z,18.80
2023-07-03T22:15:32.612Z,18.70
2023-07-03T22:17:59.404Z,18.70
2023-07-03T22:20:26.147Z,18.60
2023-07-03T22:22:52.912Z,18.60
2023-07-03T22:25:20.008Z,18.60
2023-07-03T22:27:48.047Z,18.60
2023-07-03T22:30:16.327Z,18.50
2023-07-03T22:32:43.931Z,18.40
2023-07-03T22:35:11.775Z,18.40
2023-07-03T22:37:39.337Z,18.40
2023-07-03T22:40:11.018Z,18.40
2023-07-03T22:42:41.791Z,18.40
2023-07-03T22:45:13.065Z,18.30
2023-07-03T22:47:40.428Z,18.30
2023-07-03T22:50:07.690Z,18.20
2023-07-03T22:52:35.651Z,18.20
2023-07-03T22:55:06.062Z,18.20
2023-07-03T22:57:33.142Z,18.10
2023-07-03T23:00:00.075Z,18.10
2023-07-03T23:02:29.336Z,18.10
2023-07-03T23:04:56.101Z,18.00
2023-07-03T23:07:22.933Z,18.10
2023-07-03T23:09:49.756Z,18.10
2023-07-03T23:12:16.460Z,18.00
2023-07-03T23:14:43.167Z,18.00
2023-07-03T23:17:11.437Z,18.00
2023-07-03T23:19:38.345Z,18.00
2023-07-03T23:22:05.372Z,17.90
2023-07-03T23:24:33.725Z,18.00
2023-07-03T23:27:00.420Z,18.00
2023-07-03T23:29:27.196Z,18.10
2023-07-03T23:31:53.906Z,18.10
2023-07-03T23:34:20.601Z,18.10
2023-07-03T23:36:51.595Z,18.10
2023-07-03T23:39:18.310Z,18.00
2023-07-03T23:41:46.604Z,18.10
2023-07-03T23:44:13.876Z,18.10
2023-07-03T23:46:40.688Z,18.00
2023-07-03T23:49:08.333Z,18.00
2023-07-03T23:51:35.221Z,18.00
2023-07-03T23:54:01.926Z,18.00
2023-07-03T23:56:28.651Z,18.00
2023-07-03T23:58:55.339Z,17.90
